Time;durP1;ratioP1;P1;durP2;ratioP2;P2;SDS_P1;SDS_P2;PMS_P1;PMS_P2;Temp;Humidity;BMP_temperature;BMP_pressure;BME280_temperature;BME280_humidity;BME280_pressure;Samples;Min_cycle;Max_cycle;Signal;HPM_P1;HPM_P2
2024/02/11 00:01:18;;;;;;;6.30;4.70;;;;;;;1.02;100.00;99539.50;105604;1257;66949;-55
2024/02/11 00:03:46;;;;;;;7.80;6.70;;;;;;;1.04;100.00;99534.88;105036;1257;72255;-56
2024/02/11 00:06:14;;;;;;;7.30;6.40;;;;;;;1.04;100.00;99530.98;109099;1253;61432;-58
2024/02/11 00:08:41;;;;;;;6.50;5.90;;;;;;;1.03;100.00;99535.41;106413;1256;60367;-54
2024/02/11 00:11:12;;;;;;;6.70;5.60;;;;;;;1.02;100.00;99530.13;105114;1256;73936;-54
2024/02/11 00:13:43;;;;;;;6.30;5.70;;;;;;;1.03;100.00;99530.11;105251;1256;65963;-53
2024/02/11 00:16:10;;;;;;;9.00;6.00;;;;;;;1.02;100.00;99530.31;105062;1259;70987;-54
2024/02/11 00:18:38;;;;;;;7.10;5.40;;;;;;;1.02;100.00;99523.62;105286;1251;60658;-55
2024/02/11 00:21:07;;;;;;;6.80;4.80;;;;;;;1.03;100.00;99517.91;105203;1259;60630;-55
2024/02/11 00:23:36;;;;;;;8.80;6.30;;;;;;;1.04;100.00;99520.39;106719;1256;73924;-54
2024/02/11 00:26:05;;;;;;;9.70;6.10;;;;;;;1.03;100.00;99519.34;106026;1257;67554;-54
2024/02/11 00:28:33;;;;;;;7.70;5.90;;;;;;;1.04;100.00;99517.38;105437;1257;75311;-55
2024/02/11 00:31:03;;;;;;;10.50;6.80;;;;;;;1.03;100.00;99516.33;105302;1251;60874;-55
2024/02/11 00:33:32;;;;;;;7.80;5.80;;;;;;;1.02;100.00;99515.11;105216;1252;61320;-55
2024/02/11 00:36:01;;;;;;;7.10;6.10;;;;;;;1.01;100.00;99515.50;109178;1251;72855;-56
2024/02/11 00:38:30;;;;;;;8.00;6.00;;;;;;;1.00;100.00;99520.98;105926;1256;65523;-55
2024/02/11 00:40:58;;;;;;;6.80;5.90;;;;;;;1.02;100.00;99519.91;105233;1257;72206;-54
2024/02/11 00:43:26;;;;;;;6.90;6.20;;;;;;;1.01;100.00;99519.39;105864;1253;60507;-55
2024/02/11 00:45:53;;;;;;;8.10;6.30;;;;;;;1.02;100.00;99525.56;105065;1251;61816;-54
2024/02/11 00:48:22;;;;;;;8.60;6.30;;;;;;;1.00;100.00;99523.45;105087;1256;72565;-55
2024/02/11 00:50:50;;;;;;;6.10;5.20;;;;;;;1.02;100.00;99521.83;105072;1254;65872;-55
2024/02/11 00:53:17;;;;;;;8.40;5.40;;;;;;;1.04;100.00;99524.45;104950;1254;72915;-55
2024/02/11 00:55:45;;;;;;;10.20;6.40;;;;;;;1.03;100.00;99529.05;105134;1256;60830;-56
2024/02/11 00:58:13;;;;;;;7.50;5.50;;;;;;;1.02;100.00;99522.90;105193;1256;60773;-55
2024/02/11 01:00:44;;;;;;;7.40;5.70;;;;;;;1.02;100.00;99528.02;104987;1256;72607;-55
2024/02/11 01:03:13;;;;;;;5.50;4.80;;;;;;;1.03;100.00;99528.53;109208;1256;66868;-56
2024/02/11 01:05:43;;;;;;;7.40;5.40;;;;;;;1.05;100.00;99529.39;109217;1253;71456;-56
2024/02/11 01:08:11;;;;;;;6.10;4.90;;;;;;;1.07;100.00;99529.20;109116;1252;62620;-56
2024/02/11 01:10:38;;;;;;;7.10;4.90;;;;;;;1.08;100.00;99522.11;109194;1251;60082;-56
2024/02/11 01:13:06;;;;;;;7.00;5.50;;;;;;;1.08;100.00;99525.64;109219;1251;73747;-56
2024/02/11 01:15:35;;;;;;;9.70;5.80;;;;;;;1.11;100.00;99527.19;109222;1251;65818;-56
2024/02/11 01:18:03;;;;;;;7.80;4.80;;;;;;;1.14;100.00;99531.20;105911;1253;71472;-55
2024/02/11 01:20:31;;;;;;;7.00;5.10;;;;;;;1.14;100.00;99537.04;109225;1251;60130;-56
2024/02/11 01:22:58;;;;;;;9.50;5.80;;;;;;;1.13;100.00;99532.80;109138;1254;60101;-56
2024/02/11 01:25:26;;;;;;;10.50;4.30;;;;;;;1.12;100.00;99531.58;107926;1252;72540;-55
2024/02/11 01:27:53;;;;;;;5.60;4.70;;;;;;;1.11;100.00;99534.24;105045;1256;67227;-55
2024/02/11 01:30:23;;;;;;;7.70;3.90;;;;;;;1.12;100.00;99531.58;105066;1255;72764;-56
2024/02/11 01:32:50;;;;;;;8.70;5.80;;;;;;;1.16;100.00;99530.30;104990;1254;60638;-54
2024/02/11 01:35:18;;;;;;;6.20;5.30;;;;;;;1.17;100.00;99526.05;105173;1256;60448;-53
2024/02/11 01:37:47;;;;;;;7.20;5.70;;;;;;;1.17;100.00;99528.36;105555;1252;73166;-54
2024/02/11 01:40:19;;;;;;;9.30;5.80;;;;;;;1.16;100.00;99519.34;105282;1256;66734;-54
2024/02/11 01:42:47;;;;;;;7.50;5.70;;;;;;;1.14;100.00;99519.54;105679;1256;72720;-56
2024/02/11 01:45:17;;;;;;;6.80;5.20;;;;;;;1.14;100.00;99523.43;104884;1251;66899;-54
2024/02/11 01:47:45;;;;;;;9.80;5.10;;;;;;;1.13;100.00;99525.74;108761;1251;60076;-56
2024/02/11 01:50:15;;;;;;;7.60;5.30;;;;;;;1.11;100.00;99525.76;105229;1256;73335;-55
2024/02/11 01:52:43;;;;;;;7.90;5.80;;;;;;;1.11;100.00;99525.60;105123;1251;133921;-55
2024/02/11 01:56:57;;;;;;;7.30;5.20;;;;;;;1.10;100.00;99635.36;101859;1292;600546;-55
2024/02/11 01:59:24;;;;;;;9.00;6.30;;;;;;;1.10;100.00;99645.27;103921;1272;59369;-54
2024/02/11 02:01:51;;;;;;;10.20;6.20;;;;;;;1.09;100.00;99621.59;104088;1266;59161;-55
2024/02/11 02:04:19;;;;;;;11.30;6.30;;;;;;;1.07;100.00;99610.65;104147;1267;72739;-53
2024/02/11 02:06:47;;;;;;;8.70;6.40;;;;;;;1.05;100.00;99609.96;103906;1267;65840;-54
2024/02/11 02:09:14;;;;;;;12.20;6.20;;;;;;;1.03;100.00;99612.81;105170;1270;71968;-55
2024/02/11 02:11:42;;;;;;;8.70;6.60;;;;;;;1.03;100.00;99610.34;105520;1266;140948;-54
2024/02/11 02:14:09;;;;;;;7.90;6.00;;;;;;;1.03;100.00;99607.15;104184;1266;59276;-55
2024/02/11 02:16:36;;;;;;;9.90;5.30;;;;;;;1.02;100.00;99603.83;105363;1261;71006;-55
2024/02/11 02:19:04;;;;;;;8.30;5.90;;;;;;;1.00;100.00;99597.14;104415;1260;66380;-55
2024/02/11 02:21:31;;;;;;;8.50;6.50;;;;;;;1.02;100.00;99590.93;104556;1266;72704;-56
2024/02/11 02:23:58;;;;;;;8.80;5.20;;;;;;;1.03;100.00;99591.08;104158;1266;59748;-55
2024/02/11 02:26:25;;;;;;;7.10;5.30;;;;;;;1.04;100.00;99589.13;104350;1263;59644;-54
2024/02/11 02:28:53;;;;;;;10.60;5.60;;;;;;;1.03;100.00;99586.84;104325;1268;73099;-55
2024/02/11 02:31:21;;;;;;;8.20;5.90;;;;;;;1.04;100.00;99588.95;104300;1261;69027;-53
2024/02/11 02:33:50;;;;;;;7.60;6.20;;;;;;;1.05;100.00;99587.52;104626;1266;72672;-57
2024/02/11 02:36:18;;;;;;;7.10;5.50;;;;;;;1.06;100.00;99585.22;104525;1261;59703;-55
2024/02/11 02:38:45;;;;;;;7.70;5.70;;;;;;;1.06;100.00;99585.05;104598;1264;59987;-54
2024/02/11 02:41:12;;;;;;;8.20;5.90;;;;;;;1.08;100.00;99582.55;104333;1266;72328;-54
2024/02/11 02:43:40;;;;;;;10.40;6.80;;;;;;;1.09;100.00;99585.36;104640;1267;65627;-51
2024/02/11 02:46:09;;;;;;;9.00;6.50;;;;;;;1.08;100.00;99583.42;104899;1263;71442;-55
2024/02/11 02:48:36;;;;;;;7.20;5.90;;;;;;;1.09;100.00;99576.00;104490;1265;59753;-55
2024/02/11 02:51:04;;;;;;;7.00;5.50;;;;;;;1.11;100.00;99576.33;104197;1266;59791;-55
2024/02/11 02:53:31;;;;;;;8.10;5.70;;;;;;;1.13;100.00;99576.48;104812;1258;73073;-54
2024/02/11 02:55:58;;;;;;;8.50;6.10;;;;;;;1.13;100.00;99579.83;104645;1263;65815;-54
2024/02/11 02:58:26;;;;;;;8.50;5.60;;;;;;;1.13;100.00;99590.42;104658;1263;72761;-55
2024/02/11 03:00:53;;;;;;;9.30;5.70;;;;;;;1.14;100.00;99586.52;104345;1259;60890;-55
2024/02/11 03:03:20;;;;;;;8.20;6.10;;;;;;;1.16;100.00;99583.33;104750;1264;60084;-55
2024/02/11 03:05:50;;;;;;;7.90;5.20;;;;;;;1.16;100.00;99584.74;104977;1266;72044;-55
2024/02/11 03:08:17;;;;;;;10.70;6.20;;;;;;;1.14;100.00;99580.16;104610;1266;66594;-54
2024/02/11 03:10:45;;;;;;;7.50;5.90;;;;;;;1.12;100.00;99569.93;104912;1266;72724;-55
2024/02/11 03:13:12;;;;;;;6.20;5.50;;;;;;;1.12;100.00;99572.94;104569;1260;59726;-54
2024/02/11 03:15:40;;;;;;;7.60;5.40;;;;;;;1.14;100.00;99570.44;104679;1266;60054;-55
2024/02/11 03:18:07;;;;;;;8.10;6.20;;;;;;;1.15;100.00;99565.83;104288;1260;71814;-55
2024/02/11 03:20:35;;;;;;;8.80;5.60;;;;;;;1.16;100.00;99568.31;104778;1261;66984;-55
2024/02/11 03:23:02;;;;;;;6.80;5.30;;;;;;;1.16;100.00;99571.84;104683;1261;74566;-54
2024/02/11 03:25:29;;;;;;;7.70;5.20;;;;;;;1.15;100.00;99569.55;104526;1262;59810;-52
2024/02/11 03:27:57;;;;;;;9.70;5.50;;;;;;;1.15;100.00;99567.43;104485;1260;60504;-54
2024/02/11 03:30:24;;;;;;;9.70;5.00;;;;;;;1.16;100.00;99572.90;104486;1265;73463;-54
2024/02/11 03:32:51;;;;;;;6.70;5.00;;;;;;;1.15;100.00;99577.85;104552;1261;65493;-55
2024/02/11 03:35:19;;;;;;;8.80;5.00;;;;;;;1.14;100.00;99577.15;108585;1261;71466;-53
2024/02/11 03:37:47;;;;;;;6.70;4.80;;;;;;;1.12;100.00;99579.83;104526;1264;59914;-54
2024/02/11 03:40:16;;;;;;;7.80;5.20;;;;;;;1.10;100.00;99574.92;104518;1260;61666;-53
2024/02/11 03:42:45;;;;;;;9.70;5.20;;;;;;;1.09;100.00;99572.30;105644;1265;73069;-53
2024/02/11 03:45:15;;;;;;;7.20;5.60;;;;;;;1.08;100.00;99569.30;104616;1265;67451;-54
2024/02/11 03:47:43;;;;;;;7.10;4.90;;;;;;;1.08;100.00;99571.23;108581;1264;74485;-55
2024/02/11 03:50:11;;;;;;;11.20;5.70;;;;;;;1.09;100.00;99569.46;108655;1261;59693;-55
2024/02/11 03:52:38;;;;;;;7.80;5.60;;;;;;;1.10;100.00;99574.39;108705;1264;60114;-55
2024/02/11 03:55:07;;;;;;;8.70;5.40;;;;;;;1.12;100.00;99571.52;108661;1260;73101;-56
2024/02/11 03:57:34;;;;;;;6.90;5.30;;;;;;;1.14;100.00;99569.74;108756;1261;70070;-55
2024/02/11 04:00:35;;;;;;;9.50;7.00;;;;;;;1.14;100.00;99571.85;108689;1260;71403;-55
2024/02/11 04:02:58;;;;;;;6.70;6.00;;;;;;;1.16;100.00;99579.80;108516;1260;59591;-56
2024/02/11 04:05:28;;;;;;;6.40;5.10;;;;;;;1.16;100.00;99576.97;108799;1260;60485;-55
2024/02/11 04:07:55;;;;;;;9.40;5.30;;;;;;;1.16;100.00;99572.19;108603;1261;72968;-55
2024/02/11 04:10:23;;;;;;;9.20;6.80;;;;;;;1.18;100.00;99570.77;108685;1260;69251;-55
2024/02/11 04:12:54;;;;;;;8.70;6.00;;;;;;;1.19;100.00;99563.67;108565;1261;73245;-56
2024/02/11 04:15:24;;;;;;;12.10;8.00;;;;;;;1.20;100.00;99564.18;108727;1261;60799;-55
2024/02/11 04:17:53;;;;;;;10.40;6.70;;;;;;;1.21;100.00;99562.92;108643;1261;60286;-55
2024/02/11 04:20:24;;;;;;;11.60;6.90;;;;;;;1.20;100.00;99560.64;108756;1260;71787;-55
2024/02/11 04:22:55;;;;;;;8.60;6.50;;;;;;;1.19;100.00;99560.31;108707;1260;67178;-54
2024/02/11 04:25:29;;;;;;;10.50;7.60;;;;;;;1.20;100.00;99571.25;106648;1264;71602;-55
2024/02/11 04:27:56;;;;;;;11.30;7.70;;;;;;;1.19;100.00;99564.39;104690;1266;59702;-55
2024/02/11 04:30:27;;;;;;;9.30;6.00;;;;;;;1.18;100.00;99563.69;104531;1261;61092;-54
2024/02/11 04:32:57;;;;;;;9.70;5.80;;;;;;;1.18;100.00;99562.10;104761;1263;72715;-53
2024/02/11 04:35:24;;;;;;;10.10;7.00;;;;;;;1.19;100.00;99561.01;105209;1261;67507;-54
2024/02/11 04:37:53;;;;;;;9.00;6.70;;;;;;;1.18;100.00;99556.98;104720;1265;72472;-55
2024/02/11 04:40:22;;;;;;;9.30;5.90;;;;;;;1.20;100.00;99565.42;104352;1266;59946;-54
2024/02/11 04:42:52;;;;;;;7.70;6.00;;;;;;;1.21;100.00;99563.09;105582;1264;59659;-55
2024/02/11 04:45:20;;;;;;;7.40;5.70;;;;;;;1.21;100.00;99559.91;104952;1263;72971;-54
2024/02/11 04:47:53;;;;;;;8.10;5.60;;;;;;;1.20;100.00;99560.64;104600;1265;67580;-55
2024/02/11 04:50:21;;;;;;;13.50;7.20;;;;;;;1.19;100.00;99565.27;104616;1263;71520;-55
2024/02/11 04:52:55;;;;;;;8.10;5.90;;;;;;;1.20;100.00;99572.12;104405;1260;59858;-55
2024/02/11 04:55:24;;;;;;;7.30;5.60;;;;;;;1.19;100.00;99562.61;106521;1261;59867;-55
2024/02/11 04:57:51;;;;;;;8.30;5.90;;;;;;;1.16;100.00;99563.01;104434;1260;71917;-55
2024/02/11 05:00:25;;;;;;;8.00;5.90;;;;;;;1.16;100.00;99566.90;104553;1261;67426;-55
2024/02/11 05:02:53;;;;;;;10.20;6.50;;;;;;;1.16;100.00;99569.90;104815;1264;72788;-54
2024/02/11 05:05:31;;;;;;;7.30;6.00;;;;;;;1.16;100.00;99560.88;104583;1260;61396;-54
2024/02/11 05:08:00;;;;;;;6.50;5.10;;;;;;;1.17;100.00;99566.36;105938;1263;59337;-55
2024/02/11 05:10:34;;;;;;;7.50;5.70;;;;;;;1.16;100.00;99571.14;104923;1266;71840;-55
2024/02/11 05:13:04;;;;;;;10.90;6.90;;;;;;;1.15;100.00;99570.96;104231;1260;68915;-55
2024/02/11 05:15:37;;;;;;;8.90;5.90;;;;;;;1.13;100.00;99574.52;104345;1261;73562;-54
2024/02/11 05:18:04;;;;;;;6.50;5.20;;;;;;;1.12;100.00;99581.24;104525;1263;59756;-55
2024/02/11 05:20:32;;;;;;;9.90;6.20;;;;;;;1.10;100.00;99583.40;104422;1264;60070;-54
2024/02/11 05:22:59;;;;;;;9.30;5.30;;;;;;;1.09;100.00;99581.12;104553;1261;71893;-54
2024/02/11 05:25:27;;;;;;;9.70;6.60;;;;;;;1.08;100.00;99579.19;106028;1260;66288;-56
2024/02/11 05:27:57;;;;;;;7.80;6.60;;;;;;;1.09;100.00;99579.36;104377;1260;73093;-55
2024/02/11 05:30:25;;;;;;;11.60;5.60;;;;;;;1.09;100.00;99574.77;105203;1261;60942;-55
2024/02/11 05:32:57;;;;;;;10.40;6.00;;;;;;;1.09;100.00;99578.84;104507;1260;61209;-58
2024/02/11 05:35:25;;;;;;;6.90;5.20;;;;;;;1.09;100.00;99583.07;104485;1263;73136;-55
2024/02/11 05:37:57;;;;;;;7.60;4.90;;;;;;;1.08;100.00;99574.59;104435;1261;67734;-54
2024/02/11 05:40:28;;;;;;;11.30;5.90;;;;;;;1.08;100.00;99573.72;105557;1261;72750;-55
2024/02/11 05:42:56;;;;;;;7.00;5.00;;;;;;;1.06;100.00;99578.33;104588;1260;63369;-53
2024/02/11 05:45:23;;;;;;;13.60;5.80;;;;;;;1.05;100.00;99588.06;104275;1264;59557;-55
2024/02/11 05:47:51;;;;;;;6.60;5.50;;;;;;;1.06;100.00;99585.05;104323;1260;71888;-55
2024/02/11 05:50:20;;;;;;;7.70;4.90;;;;;;;1.07;100.00;99592.98;108659;1260;67004;-55
2024/02/11 05:52:48;;;;;;;7.50;5.40;;;;;;;1.08;100.00;99598.81;108553;1260;71929;-55
2024/02/11 05:55:18;;;;;;;8.50;6.30;;;;;;;1.08;100.00;99601.27;108585;1260;59772;-55
2024/02/11 05:57:47;;;;;;;8.90;5.90;;;;;;;1.10;100.00;99598.44;108681;1260;60159;-55
2024/02/11 06:00:18;;;;;;;9.20;6.60;;;;;;;1.12;100.00;99596.63;108585;1260;73044;-56
2024/02/11 06:02:46;;;;;;;9.90;6.60;;;;;;;1.13;100.00;99598.73;106286;1264;67422;-55
2024/02/11 06:05:14;;;;;;;10.80;6.80;;;;;;;1.14;100.00;99600.66;105055;1264;71914;-55
2024/02/11 06:07:46;;;;;;;8.20;6.60;;;;;;;1.15;100.00;99601.19;104807;1264;60752;-54
2024/02/11 06:10:14;;;;;;;9.50;6.60;;;;;;;1.16;100.00;99598.35;104328;1260;62126;-53
2024/02/11 06:12:42;;;;;;;13.90;6.10;;;;;;;1.18;100.00;99605.05;104583;1261;74479;-55
2024/02/11 06:15:11;;;;;;;10.20;5.90;;;;;;;1.20;100.00;99603.77;105071;1264;65843;-54
2024/02/11 06:17:38;;;;;;;11.20;6.10;;;;;;;1.21;100.00;99595.45;104974;1261;71407;-53
2024/02/11 06:20:09;;;;;;;8.30;7.00;;;;;;;1.22;100.00;99589.95;104542;1261;60945;-53
2024/02/11 06:22:36;;;;;;;8.80;6.40;;;;;;;1.22;100.00;99587.30;108010;1264;59990;-54
2024/02/11 06:25:04;;;;;;;9.30;7.30;;;;;;;1.23;100.00;99581.98;104547;1261;71698;-52
2024/02/11 06:27:34;;;;;;;7.80;5.70;;;;;;;1.25;100.00;99571.37;104559;1264;66730;-54
2024/02/11 06:30:02;;;;;;;9.40;6.70;;;;;;;1.25;100.00;99568.54;104592;1260;73092;-53
2024/02/11 06:32:29;;;;;;;10.50;7.50;;;;;;;1.26;100.00;99563.05;104622;1262;61370;-53
2024/02/11 06:34:59;;;;;;;10.00;7.10;;;;;;;1.26;100.00;99563.93;104145;1263;60557;-53
2024/02/11 06:37:26;;;;;;;10.90;6.50;;;;;;;1.29;100.00;99571.30;104754;1260;74296;-52
2024/02/11 06:39:54;;;;;;;10.80;7.00;;;;;;;1.32;100.00;99572.50;108629;1259;65729;-54
2024/02/11 06:42:21;;;;;;;8.90;6.10;;;;;;;1.34;100.00;99575.83;108774;1260;72826;-53
2024/02/11 06:44:49;;;;;;;8.30;6.70;;;;;;;1.37;100.00;99576.84;105263;1260;60659;-53
2024/02/11 06:47:18;;;;;;;12.20;7.90;;;;;;;1.37;100.00;99573.83;104545;1261;60546;-55
2024/02/11 06:49:45;;;;;;;9.70;6.90;;;;;;;1.39;100.00;99584.23;104449;1260;72669;-54
2024/02/11 06:52:13;;;;;;;8.00;6.10;;;;;;;1.40;100.00;99584.77;104497;1260;67062;-53
2024/02/11 06:54:40;;;;;;;10.50;6.70;;;;;;;1.41;100.00;99585.80;104723;1264;72725;-52
2024/02/11 06:57:09;;;;;;;10.20;6.60;;;;;;;1.41;100.00;99577.51;108721;1257;61383;-53
2024/02/11 06:59:38;;;;;;;10.20;8.00;;;;;;;1.42;100.00;99573.77;108770;1257;59620;-54
2024/02/11 07:02:05;;;;;;;10.60;6.10;;;;;;;1.43;100.00;99574.48;108738;1256;72647;-53
2024/02/11 07:04:33;;;;;;;9.50;6.40;;;;;;;1.45;100.00;99577.98;108720;1258;67065;-53
2024/02/11 07:07:04;;;;;;;7.20;5.50;;;;;;;1.47;100.00;99578.82;108585;1257;71448;-54
2024/02/11 07:09:31;;;;;;;10.00;7.20;;;;;;;1.49;100.00;99581.10;108591;1259;58921;-54
2024/02/11 07:11:58;;;;;;;7.60;5.80;;;;;;;1.52;100.00;99584.40;105838;1263;60482;-54
2024/02/11 07:14:26;;;;;;;8.60;5.70;;;;;;;1.56;100.00;99588.42;104423;1259;73956;-56
2024/02/11 07:16:58;;;;;;;12.00;6.50;;;;;;;1.59;100.00;99596.00;104509;1257;68200;-55
2024/02/11 07:19:25;;;;;;;8.20;6.00;;;;;;;1.60;100.00;99599.52;104453;1263;72757;-55
2024/02/11 07:21:53;;;;;;;9.30;6.70;;;;;;;1.60;100.00;99598.63;104534;1264;61038;-53
2024/02/11 07:24:21;;;;;;;7.60;6.60;;;;;;;1.61;100.00;99605.70;104513;1260;60573;-53
2024/02/11 07:26:48;;;;;;;9.50;6.70;;;;;;;1.61;100.00;99608.71;104646;1263;72616;-54
2024/02/11 07:29:16;;;;;;;7.40;5.80;;;;;;;1.61;100.00;99612.95;104447;1263;67795;-56
2024/02/11 07:31:44;;;;;;;10.10;7.70;;;;;;;1.62;100.00;99622.10;105684;1263;71461;-54
2024/02/11 07:34:11;;;;;;;12.80;7.60;;;;;;;1.64;100.00;99623.67;104508;1257;60819;-53
2024/02/11 07:36:42;;;;;;;9.70;7.10;;;;;;;1.64;100.00;99628.80;105066;1258;60549;-54
2024/02/11 07:39:15;;;;;;;11.00;8.00;;;;;;;1.65;100.00;99631.27;104654;1257;74289;-56
2024/02/11 07:41:44;;;;;;;12.30;7.40;;;;;;;1.66;100.00;99630.20;104787;1260;66603;-55
2024/02/11 07:44:12;;;;;;;11.30;7.60;;;;;;;1.67;100.00;99628.59;104542;1263;71436;-54
2024/02/11 07:46:42;;;;;;;10.80;8.30;;;;;;;1.68;100.00;99631.95;105157;1263;60914;-51
2024/02/11 07:49:10;;;;;;;11.20;7.80;;;;;;;1.68;100.00;99629.82;107073;1258;60623;-52
2024/02/11 07:51:44;;;;;;;10.60;7.00;;;;;;;1.71;100.00;99631.36;104930;1257;73060;-54
2024/02/11 07:54:11;;;;;;;11.70;8.80;;;;;;;1.72;100.00;99636.29;104841;1257;65474;-54
2024/02/11 07:56:39;;;;;;;9.60;6.60;;;;;;;1.72;100.00;99634.86;104865;1260;71484;-53
2024/02/11 07:59:06;;;;;;;11.00;8.60;;;;;;;1.73;100.00;99641.05;105007;1262;60459;-53
2024/02/11 08:01:34;;;;;;;11.30;8.50;;;;;;;1.74;100.00;99648.48;105895;1258;60532;-51
2024/02/11 08:04:01;;;;;;;12.40;9.10;;;;;;;1.76;100.00;99642.63;105394;1262;73939;-54
2024/02/11 08:06:29;;;;;;;11.10;8.10;;;;;;;1.77;100.00;99645.27;104996;1263;67520;-55
2024/02/11 08:08:57;;;;;;;13.00;9.30;;;;;;;1.77;100.00;99641.89;105240;1259;72758;-53
2024/02/11 08:11:24;;;;;;;14.50;10.00;;;;;;;1.79;100.00;99643.27;105223;1258;60931;-53
2024/02/11 08:13:54;;;;;;;12.90;8.20;;;;;;;1.81;100.00;99650.84;105363;1254;60510;-51
2024/02/11 08:16:22;;;;;;;12.20;8.30;;;;;;;1.83;100.00;99648.88;105555;1257;74319;-54
2024/02/11 08:18:51;;;;;;;14.00;9.30;;;;;;;1.85;100.00;99650.98;105050;1254;67129;-55
2024/02/11 08:21:18;;;;;;;13.70;9.50;;;;;;;1.86;100.00;99651.14;105085;1257;71501;-53
2024/02/11 08:23:46;;;;;;;12.80;8.60;;;;;;;1.89;100.00;99648.42;105253;1254;60555;-54
2024/02/11 08:26:13;;;;;;;12.30;9.50;;;;;;;1.91;100.00;99643.98;104948;1254;60430;-54
2024/02/11 08:28:40;;;;;;;14.10;9.70;;;;;;;1.94;100.00;99647.83;105425;1254;72968;-52
2024/02/11 08:31:09;;;;;;;16.20;9.30;;;;;;;1.98;100.00;99650.94;105197;1254;65815;-53
2024/02/11 08:33:36;;;;;;;13.40;9.10;;;;;;;2.00;100.00;99652.50;105061;1256;73212;-54
2024/02/11 08:36:04;;;;;;;13.00;9.90;;;;;;;2.02;100.00;99648.06;105693;1254;61062;-54
2024/02/11 08:38:32;;;;;;;10.50;8.00;;;;;;;2.05;100.00;99646.77;106061;1253;60556;-52
2024/02/11 08:41:00;;;;;;;13.40;9.50;;;;;;;2.07;100.00;99650.98;105088;1254;72825;-52
2024/02/11 08:43:27;;;;;;;13.90;9.00;;;;;;;2.08;100.00;99651.67;105018;1254;67309;-54
2024/02/11 08:45:55;;;;;;;12.10;9.30;;;;;;;2.09;100.00;99647.95;104965;1259;74385;-53
2024/02/11 08:48:22;;;;;;;13.70;9.70;;;;;;;2.11;100.00;99645.09;105057;1254;60513;-53
2024/02/11 08:50:50;;;;;;;11.80;9.40;;;;;;;2.12;100.00;99651.27;106436;1253;60456;-53
2024/02/11 08:53:22;;;;;;;14.30;9.60;;;;;;;2.15;100.00;99658.98;105135;1257;72633;-53
2024/02/11 08:55:49;;;;;;;12.70;8.50;;;;;;;2.17;100.00;99663.23;105339;1260;65792;-54
2024/02/11 08:58:17;;;;;;;12.00;9.20;;;;;;;2.19;100.00;99663.73;104983;1257;71499;-55
2024/02/11 09:00:45;;;;;;;10.30;8.10;;;;;;;2.20;100.00;99669.55;104984;1258;60946;-53
2024/02/11 09:03:12;;;;;;;11.00;7.70;;;;;;;2.22;100.00;99679.05;104949;1254;60550;-55
2024/02/11 09:05:39;;;;;;;13.30;9.60;;;;;;;2.24;100.00;99678.86;105075;1257;74372;-55
2024/02/11 09:08:07;;;;;;;11.10;7.80;;;;;;;2.27;100.00;99684.30;104952;1257;67164;-55
2024/02/11 09:10:34;;;;;;;11.80;7.70;;;;;;;2.30;100.00;99685.84;105296;1254;71355;-55
2024/02/11 09:13:02;;;;;;;12.90;8.40;;;;;;;2.33;100.00;99686.15;104918;1254;60946;-55
2024/02/11 09:15:29;;;;;;;11.20;8.10;;;;;;;2.37;100.00;99686.64;105042;1257;60597;-53
2024/02/11 09:17:57;;;;;;;11.90;8.20;;;;;;;2.41;100.00;99680.54;105099;1258;73888;-54
2024/02/11 09:20:24;;;;;;;12.10;8.80;;;;;;;2.43;100.00;99677.66;105489;1254;66737;-53
2024/02/11 09:22:52;;;;;;;12.50;9.70;;;;;;;2.45;100.00;99668.96;105059;1254;71188;-54
2024/02/11 09:25:19;;;;;;;13.10;9.30;;;;;;;2.49;100.00;99670.83;105307;1254;60940;-54
2024/02/11 09:27:47;;;;;;;17.10;10.20;;;;;;;2.53;100.00;99673.61;105162;1257;60548;-54
2024/02/11 09:30:16;;;;;;;14.00;10.00;;;;;;;2.54;100.00;99672.17;105131;1254;74590;-55
2024/02/11 09:32:44;;;;;;;21.50;10.30;;;;;;;2.55;100.00;99666.30;105471;1252;65868;-54
2024/02/11 09:35:13;;;;;;;17.10;11.60;;;;;;;2.56;100.00;99666.63;105685;1254;73486;-53
2024/02/11 09:37:42;;;;;;;16.50;11.80;;;;;;;2.57;100.00;99674.77;106024;1254;60964;-54
2024/02/11 09:40:10;;;;;;;16.20;11.20;;;;;;;2.57;100.00;99675.83;109022;1252;60051;-55
2024/02/11 09:42:38;;;;;;;17.90;11.00;;;;;;;2.56;100.00;99674.05;109026;1254;72627;-55
2024/02/11 09:45:06;;;;;;;14.40;10.50;;;;;;;2.56;100.00;99672.64;109048;1254;69807;-55
2024/02/11 09:47:33;;;;;;;15.10;11.90;;;;;;;2.60;100.00;99676.67;108901;1254;71909;-56
2024/02/11 09:50:04;;;;;;;13.90;10.10;;;;;;;2.63;100.00;99677.33;105774;1260;60914;-56
2024/02/11 09:52:31;;;;;;;14.40;10.10;;;;;;;2.66;100.00;99676.38;107113;1258;59221;-51
2024/02/11 09:54:59;;;;;;;14.10;10.50;;;;;;;2.69;100.00;99667.48;104949;1260;74496;-54
2024/02/11 09:57:26;;;;;;;15.40;11.00;;;;;;;2.73;100.00;99666.34;104809;1254;65799;-55
2024/02/11 09:59:54;;;;;;;14.90;9.90;;;;;;;2.77;100.00;99665.21;105064;1257;70440;-56
2024/02/11 10:02:21;;;;;;;16.10;11.10;;;;;;;2.80;100.00;99668.52;104813;1260;61988;-55
2024/02/11 10:04:51;;;;;;;14.10;10.20;;;;;;;2.82;100.00;99670.77;109081;1253;59986;-56
2024/02/11 10:07:23;;;;;;;13.40;10.10;;;;;;;2.84;100.00;99660.83;109051;1256;72592;-56
2024/02/11 10:09:50;;;;;;;16.20;11.80;;;;;;;2.85;100.00;99662.75;109096;1253;66914;-56
2024/02/11 10:12:18;;;;;;;16.30;11.30;;;;;;;2.89;100.00;99665.67;109049;1257;71438;-57
2024/02/11 10:14:52;;;;;;;14.20;10.90;;;;;;;2.91;100.00;99665.98;108994;1253;62328;-56
2024/02/11 10:17:21;;;;;;;13.30;10.20;;;;;;;2.93;100.00;99673.94;109114;1253;58936;-56
2024/02/11 10:19:51;;;;;;;18.40;11.50;;;;;;;2.95;100.00;99661.86;109018;1253;73750;-56
2024/02/11 10:22:19;;;;;;;16.60;11.40;;;;;;;2.97;100.00;99654.73;109034;1253;66975;-56
2024/02/11 10:24:56;;;;;;;15.10;10.40;;;;;;;3.00;100.00;99645.44;106172;1257;72764;-55
2024/02/11 10:27:23;;;;;;;15.60;11.80;;;;;;;3.01;100.00;99636.38;105630;1256;60530;-53
2024/02/11 10:29:51;;;;;;;15.90;11.50;;;;;;;3.00;100.00;99633.02;105007;1256;60469;-56
2024/02/11 10:32:18;;;;;;;15.40;11.30;;;;;;;3.00;100.00;99626.64;105167;1254;72608;-52
2024/02/11 10:34:46;;;;;;;20.20;13.40;;;;;;;2.99;100.00;99631.10;107654;1254;65112;-55
2024/02/11 10:37:15;;;;;;;17.80;12.80;;;;;;;2.99;100.00;99637.48;105005;1259;72690;-57
2024/02/11 10:39:43;;;;;;;19.10;13.60;;;;;;;3.00;100.00;99647.21;104865;1254;60892;-54
2024/02/11 10:42:11;;;;;;;17.70;12.20;;;;;;;3.01;100.00;99648.27;106263;1254;60549;-54
2024/02/11 10:44:39;;;;;;;17.30;12.40;;;;;;;3.01;100.00;99649.14;105103;1254;73830;-55
2024/02/11 10:47:07;;;;;;;17.00;12.10;;;;;;;3.00;100.00;99652.17;104990;1255;67043;-54
2024/02/11 10:49:34;;;;;;;18.20;13.50;;;;;;;2.98;100.00;99653.98;105001;1254;71444;-55
2024/02/11 10:52:06;;;;;;;18.20;12.80;;;;;;;3.00;100.00;99661.57;105108;1252;61380;-55
2024/02/11 10:54:41;;;;;;;20.10;12.90;;;;;;;3.01;100.00;99660.84;105065;1254;60697;-55
2024/02/11 10:57:19;;;;;;;19.10;12.80;;;;;;;3.01;100.00;99660.50;105223;1259;73950;-54
2024/02/11 10:59:55;;;;;;;19.60;12.50;;;;;;;3.02;100.00;99659.23;105027;1254;66919;-55
2024/02/11 11:02:23;;;;;;;19.20;13.50;;;;;;;3.04;100.00;99651.40;106051;1254;71923;-55
2024/02/11 11:04:50;;;;;;;17.90;13.40;;;;;;;3.06;100.00;99646.94;104957;1257;60520;-55
2024/02/11 11:07:19;;;;;;;18.60;13.20;;;;;;;3.06;100.00;99653.30;105061;1254;60499;-55
2024/02/11 11:09:46;;;;;;;21.40;13.80;;;;;;;3.07;100.00;99653.27;104724;1254;74267;-58
2024/02/11 11:12:18;;;;;;;19.40;12.40;;;;;;;3.08;100.00;99654.70;104828;1259;66914;-57
2024/02/11 11:14:45;;;;;;;20.60;13.30;;;;;;;3.06;100.00;99660.04;105049;1254;72802;-55
2024/02/11 11:17:20;;;;;;;18.30;13.40;;;;;;;3.06;100.00;99657.23;105209;1259;60546;-56
2024/02/11 11:19:52;;;;;;;22.10;13.70;;;;;;;3.07;100.00;99660.02;105210;1254;60424;-56
2024/02/11 11:22:24;;;;;;;19.50;13.90;;;;;;;3.07;100.00;99656.11;105341;1254;73779;-53
2024/02/11 11:24:53;;;;;;;19.90;13.80;;;;;;;3.08;100.00;99651.30;105004;1253;67152;-54
2024/02/11 11:27:21;;;;;;;20.60;13.90;;;;;;;3.07;100.00;99649.92;104982;1258;73893;-55